Helena, Montana
Current Conditions -  °F | °C
As of 8:53 PM on Wednesday 28 Jan 2015 (Local Time) from KHLN Reporting Station
Clear Clear  
Wind Chill: 32°   Ceiling: Unl
Heat Index: 36°   Visibility: 10mi
Dew Point: 23°   Wind: 5mph
Humidity: 59%   Direction: 200°SSW
Pressure: 30.36"   Gusts: NA
Location:  46.59°N, 112.02°W
Report Text: KHLN 290353Z 20004KT 10SM CLR 02/M05 A3036 RMK AO2 SLP314 T00221050
Loading
Personal Weather Stations






























Interactive Weather Map New forecast layout! Learn more

10-Day Weather Forecast

Advertisements
Track Severe Weather on mobile